Time;durP1;ratioP1;P1;durP2;ratioP2;P2;SDS_P1;SDS_P2;PMS_P1;PMS_P2;Temp;Humidity;BMP_temperature;BMP_pressure;BME280_temperature;BME280_humidity;BME280_pressure;Samples;Min_cycle;Max_cycle;Signal;HPM_P1;HPM_P2
2022/05/05 00:00:44;;;;;;;10.82;4.43;;;;;;;10.55;65.01;100202.59;5007958;28;20068;-83
2022/05/05 00:03:10;;;;;;;11.13;5.13;;;;;;;10.59;65.46;100206.47;5009243;28;20021;-83
2022/05/05 00:05:35;;;;;;;10.37;4.73;;;;;;;10.66;65.36;100197.25;5009655;28;20610;-83
2022/05/05 00:08:00;;;;;;;11.47;3.90;;;;;;;10.76;64.33;100204.75;5008231;28;20260;-83
2022/05/05 00:15:54;;;;;;;11.30;3.58;;;;;;;10.81;65.33;100191.16;5029815;28;19971;-83
2022/05/05 00:18:20;;;;;;;14.98;4.97;;;;;;;10.80;65.10;100186.78;5028269;28;20045;-84
2022/05/05 00:20:45;;;;;;;13.23;4.10;;;;;;;10.75;64.67;100190.28;5022393;28;20030;-83
2022/05/05 00:23:11;;;;;;;10.48;3.90;;;;;;;10.77;65.34;100188.13;5009517;28;20108;-83
2022/05/05 00:25:36;;;;;;;10.70;5.18;;;;;;;10.65;65.73;100192.88;5008156;28;20048;-83
2022/05/05 00:28:01;;;;;;;9.30;4.00;;;;;;;10.78;65.81;100192.47;5009378;28;20069;-83
2022/05/05 00:30:27;;;;;;;7.43;3.22;;;;;;;10.89;65.58;100192.59;5007413;28;20034;-82
2022/05/05 00:32:52;;;;;;;8.82;3.95;;;;;;;11.05;64.40;100191.69;5008766;28;20068;-83
2022/05/05 00:35:17;;;;;;;8.87;4.20;;;;;;;10.80;65.59;100187.59;5007603;28;20028;-82
2022/05/05 00:37:43;;;;;;;9.25;3.72;;;;;;;10.69;66.87;100188.56;5008922;28;20651;-83
2022/05/05 00:40:08;;;;;;;9.77;3.27;;;;;;;11.00;65.44;100188.91;5008170;28;20042;-83
2022/05/05 00:42:35;;;;;;;15.35;6.10;;;;;;;10.85;66.19;100187.66;5007884;28;20655;-83
2022/05/05 00:45:00;;;;;;;8.93;3.08;;;;;;;10.62;67.34;100178.66;5008964;28;20026;-83
2022/05/05 00:47:26;;;;;;;17.92;5.15;;;;;;;10.65;66.88;100181.97;5006744;28;20029;-83
2022/05/05 00:49:52;;;;;;;13.93;4.45;;;;;;;10.64;67.37;100181.13;5009060;28;20369;-84
2022/05/05 00:52:17;;;;;;;8.48;3.88;;;;;;;10.60;67.25;100180.84;5007008;28;20200;-84
2022/05/05 00:54:43;;;;;;;12.05;4.20;;;;;;;10.64;67.67;100185.78;5008734;28;20117;-83
2022/05/05 00:57:09;;;;;;;8.70;3.67;;;;;;;10.56;67.44;100184.31;5008068;28;20398;-84
2022/05/05 00:59:36;;;;;;;13.43;4.93;;;;;;;10.44;68.11;100192.59;5006673;28;20638;-83
2022/05/05 01:02:02;;;;;;;7.90;3.53;;;;;;;10.45;67.49;100188.81;5007637;28;20431;-83
2022/05/05 01:04:27;;;;;;;13.00;4.53;;;;;;;10.33;67.71;100178.03;5007091;28;20030;-83
2022/05/05 01:06:52;;;;;;;11.45;4.13;;;;;;;10.25;68.10;100185.53;5008669;28;20372;-82
2022/05/05 01:09:20;;;;;;;9.67;5.13;;;;;;;10.42;67.59;100179.22;5006941;28;20041;-83
2022/05/05 01:11:46;;;;;;;12.20;6.03;;;;;;;10.46;68.17;100184.97;5016546;28;20286;-83
2022/05/05 01:14:15;;;;;;;8.20;3.83;;;;;;;10.33;68.61;100184.28;5026747;28;20059;-83
2022/05/05 01:16:40;;;;;;;9.15;3.67;;;;;;;10.45;67.13;100191.53;5027034;28;20259;-83
2022/05/05 01:19:05;;;;;;;11.98;4.80;;;;;;;10.50;66.37;100180.72;5027377;28;20116;-84
2022/05/05 01:21:31;;;;;;;9.52;4.13;;;;;;;10.52;67.54;100186.72;5014385;28;20061;-83
2022/05/05 01:23:56;;;;;;;9.07;3.72;;;;;;;10.47;67.73;100192.94;5008371;28;20036;-83
2022/05/05 01:29:08;;;;;;;12.80;4.57;;;;;;;10.69;66.09;100199.47;5008064;28;20514;-83
2022/05/05 01:31:34;;;;;;;15.57;4.88;;;;;;;10.78;66.56;100192.47;5006606;28;20505;-83
2022/05/05 01:33:59;;;;;;;7.75;2.92;;;;;;;10.70;65.71;100196.47;5007462;28;20025;-82
2022/05/05 01:36:24;;;;;;;11.10;4.32;;;;;;;10.65;67.20;100198.34;5007774;28;20110;-84
2022/05/05 01:39:03;;;;;;;12.83;3.73;;;;;;;10.49;67.87;100203.59;5006476;28;20036;-83
2022/05/05 01:41:30;;;;;;;6.57;3.22;;;;;;;10.47;67.72;100209.28;5007771;28;20627;-82
2022/05/05 01:43:56;;;;;;;10.20;4.57;;;;;;;10.31;68.29;100205.53;5006462;28;20030;-83
2022/05/05 01:46:21;;;;;;;8.82;3.38;;;;;;;10.19;68.40;100205.63;5007306;28;20033;-83
2022/05/05 01:48:46;;;;;;;9.30;4.47;;;;;;;10.34;68.18;100204.19;5006739;28;20452;-84
2022/05/05 01:51:11;;;;;;;9.10;3.67;;;;;;;10.33;68.36;100208.81;5006852;28;20041;-83
2022/05/05 01:53:37;;;;;;;11.18;5.07;;;;;;;10.53;67.36;100212.94;5007384;28;20263;-83
2022/05/05 01:56:06;;;;;;;13.90;3.93;;;;;;;10.74;67.07;100210.44;5006540;28;20061;-83
2022/05/05 01:58:32;;;;;;;12.70;4.35;;;;;;;10.85;65.25;100206.75;5007439;28;20284;-83
2022/05/05 02:00:58;;;;;;;8.85;3.47;;;;;;;10.85;64.93;100198.56;5005344;28;20120;-84
2022/05/05 02:03:23;;;;;;;11.05;4.38;;;;;;;10.76;65.34;100200.09;5006809;28;20037;-83
2022/05/05 02:05:49;;;;;;;7.13;3.25;;;;;;;10.49;66.89;100214.50;5006079;28;20029;-83
2022/05/05 02:08:14;;;;;;;7.05;3.67;;;;;;;10.53;66.88;100217.56;5007140;28;20101;-83
2022/05/05 02:10:40;;;;;;;10.23;4.38;;;;;;;10.43;67.86;100212.75;5004230;28;20046;-83
2022/05/05 02:13:06;;;;;;;11.35;5.38;;;;;;;10.52;66.90;100208.53;5025647;28;20045;-82
2022/05/05 02:15:34;;;;;;;11.95;3.50;;;;;;;10.60;66.42;100210.81;5026866;28;20079;-83
2022/05/05 02:18:07;;;;;;;15.65;4.38;;;;;;;10.46;67.77;100213.06;5023878;28;20045;-83
2022/05/05 02:20:32;;;;;;;10.75;4.70;;;;;;;10.28;68.20;100206.03;5022382;28;20033;-82
2022/05/05 02:22:57;;;;;;;12.07;5.07;;;;;;;10.33;67.89;100214.25;5004564;28;20038;-83
2022/05/05 02:25:23;;;;;;;11.43;5.17;;;;;;;10.34;67.51;100215.91;5007199;28;20271;-83
2022/05/05 02:27:50;;;;;;;11.73;4.50;;;;;;;10.45;67.44;100221.50;5005911;28;20341;-83
2022/05/05 02:30:18;;;;;;;7.90;3.72;;;;;;;10.57;66.89;100216.78;5006230;28;20271;-83
2022/05/05 02:32:43;;;;;;;17.02;5.90;;;;;;;10.61;66.97;100217.94;5006758;28;20037;-83
2022/05/05 02:35:09;;;;;;;13.85;6.65;;;;;;;10.36;67.41;100218.38;5005207;28;20704;-83
2022/05/05 02:40:18;;;;;;;6.07;4.13;;;;;;;10.47;68.37;100217.47;5007064;28;20072;-83
2022/05/05 02:42:43;;;;;;;21.70;6.60;;;;;;;10.38;68.13;100217.06;5026041;28;20188;-83
2022/05/05 02:45:09;;;;;;;9.97;4.97;;;;;;;10.16;69.66;100217.88;5025701;28;20027;-84
2022/05/05 02:47:34;;;;;;;15.10;5.03;;;;;;;9.81;69.90;100225.25;5025198;28;20262;-83
2022/05/05 02:49:59;;;;;;;12.93;7.23;;;;;;;9.93;69.47;100225.16;5025915;28;20488;-83
2022/05/05 02:52:25;;;;;;;19.70;7.20;;;;;;;9.92;69.82;100225.41;5004903;28;20259;-83
2022/05/05 02:54:54;;;;;;;13.13;5.47;;;;;;;9.83;70.12;100222.28;5006723;28;20279;-83
2022/05/05 02:57:23;;;;;;;12.80;4.65;;;;;;;10.03;69.91;100220.94;5004786;28;20294;-83
2022/05/05 02:59:53;;;;;;;11.57;4.45;;;;;;;9.88;70.01;100222.38;5006260;28;20033;-82
2022/05/05 03:02:19;;;;;;;12.80;4.80;;;;;;;9.61;71.60;100219.47;5004603;28;20211;-83
2022/05/05 03:04:45;;;;;;;8.68;4.93;;;;;;;9.56;71.94;100222.94;5005640;28;20022;-82
2022/05/05 03:07:10;;;;;;;10.07;4.82;;;;;;;9.64;71.67;100221.72;5006167;28;20033;-83
2022/05/05 03:09:36;;;;;;;13.13;6.38;;;;;;;9.69;72.04;100216.34;5005490;28;20029;-83
2022/05/05 03:15:06;;;;;;;12.82;5.47;;;;;;;9.49;71.51;100225.00;5024475;28;20688;-83
2022/05/05 03:17:31;;;;;;;14.60;5.40;;;;;;;9.46;70.98;100229.03;5025109;28;20044;-83
2022/05/05 03:19:57;;;;;;;10.93;5.47;;;;;;;9.29;72.04;100234.47;5025460;28;20033;-83
2022/05/05 03:22:22;;;;;;;17.13;5.90;;;;;;;9.46;71.90;100229.03;5004721;28;20029;-83
2022/05/05 03:24:47;;;;;;;17.95;6.70;;;;;;;9.49;71.63;100230.44;5006076;28;20033;-83
2022/05/05 03:27:12;;;;;;;10.83;5.23;;;;;;;9.28;71.81;100230.91;5004499;28;20018;-83
2022/05/05 03:29:38;;;;;;;15.10;4.87;;;;;;;9.21;72.11;100232.97;5005768;28;20773;-83
2022/05/05 03:32:04;;;;;;;18.92;9.75;;;;;;;9.13;73.14;100239.63;5002151;28;20271;-82
2022/05/05 03:34:29;;;;;;;22.83;10.48;;;;;;;9.12;73.22;100232.53;5005298;28;20018;-82
2022/05/05 03:36:54;;;;;;;21.50;7.75;;;;;;;9.20;72.76;100243.00;5004688;28;20100;-83
2022/05/05 03:39:19;;;;;;;9.70;4.60;;;;;;;9.20;73.35;100243.00;5004653;28;20918;-83
2022/05/05 03:41:45;;;;;;;9.30;5.90;;;;;;;9.28;73.06;100244.50;5004700;28;20503;-83
2022/05/05 03:44:10;;;;;;;14.95;5.95;;;;;;;9.59;72.57;100246.94;5003097;28;20255;-83
2022/05/05 03:46:35;;;;;;;12.57;5.35;;;;;;;9.51;72.43;100241.91;5020279;28;20052;-83
2022/05/05 03:49:01;;;;;;;10.77;5.72;;;;;;;9.59;72.67;100241.50;5003290;28;20030;-83
2022/05/05 03:51:26;;;;;;;13.23;6.35;;;;;;;9.68;72.27;100237.28;5005326;28;20121;-83
2022/05/05 03:53:52;;;;;;;11.05;5.70;;;;;;;9.74;72.14;100240.13;5002741;28;20037;-83
2022/05/05 03:56:17;;;;;;;12.90;5.45;;;;;;;9.68;72.30;100237.28;5005253;28;20034;-83
2022/05/05 03:58:42;;;;;;;16.80;6.90;;;;;;;9.61;72.52;100244.81;5004933;28;20029;-83
2022/05/05 04:01:07;;;;;;;18.07;7.43;;;;;;;9.41;73.28;100243.38;5004066;28;20057;-83
2022/05/05 04:03:34;;;;;;;19.10;6.63;;;;;;;9.38;73.09;100243.88;5005324;28;20283;-83
2022/05/05 04:06:06;;;;;;;14.90;7.70;;;;;;;9.52;72.11;100249.00;5004724;28;20034;-83
2022/05/05 04:08:32;;;;;;;16.65;6.53;;;;;;;9.77;70.83;100250.50;5004922;28;20485;-82
2022/05/05 04:10:58;;;;;;;17.35;7.30;;;;;;;9.89;70.90;100253.13;5005846;28;20149;-82
2022/05/05 04:13:25;;;;;;;11.25;6.28;;;;;;;9.89;70.72;100253.13;5023063;28;20100;-82
2022/05/05 04:15:51;;;;;;;13.55;6.35;;;;;;;9.94;71.66;100253.22;5024561;28;20029;-83
2022/05/05 04:18:16;;;;;;;13.75;7.13;;;;;;;9.93;71.62;100257.00;5024761;28;20083;-82
2022/05/05 04:20:42;;;;;;;11.45;5.88;;;;;;;10.05;71.94;100256.91;5019020;28;20029;-82
2022/05/05 04:23:08;;;;;;;14.07;6.47;;;;;;;10.16;71.73;100268.81;5004179;28;20025;-83
2022/05/05 04:25:33;;;;;;;13.57;5.43;;;;;;;10.37;70.75;100266.38;5003824;28;20456;-82
2022/05/05 04:27:58;;;;;;;16.48;6.57;;;;;;;10.41;70.98;100266.72;5003866;28;20022;-83
2022/05/05 04:30:39;;;;;;;13.65;6.38;;;;;;;10.28;72.18;100274.16;5004394;28;20121;-83
2022/05/05 04:33:06;;;;;;;15.10;6.40;;;;;;;10.48;71.67;100265.44;5004002;28;20489;-83
2022/05/05 04:35:31;;;;;;;17.67;6.70;;;;;;;10.49;69.73;100269.03;4992848;28;20627;-83
2022/05/05 04:37:57;;;;;;;20.15;6.43;;;;;;;10.58;70.05;100270.22;5007625;28;20034;-83
2022/05/05 04:40:23;;;;;;;16.52;6.03;;;;;;;10.64;67.60;100271.13;5007133;28;20034;-83
2022/05/05 04:42:48;;;;;;;13.05;5.13;;;;;;;10.62;67.05;100276.84;5023622;28;20076;-83
2022/05/05 04:45:13;;;;;;;14.63;6.03;;;;;;;10.76;67.76;100268.25;5007354;28;20463;-83
2022/05/05 04:47:39;;;;;;;14.10;5.53;;;;;;;10.68;67.96;100268.75;5008504;28;20038;-83
2022/05/05 04:50:05;;;;;;;21.30;6.45;;;;;;;10.50;68.09;100274.22;5007255;28;20029;-83
2022/05/05 04:52:31;;;;;;;15.68;6.15;;;;;;;10.54;67.87;100279.16;5007951;28;20496;-83
2022/05/05 04:54:57;;;;;;;14.27;5.47;;;;;;;10.66;67.78;100282.59;5023650;28;20029;-83
2022/05/05 04:57:22;;;;;;;15.93;5.93;;;;;;;10.83;66.20;100277.09;5005743;28;20033;-83
2022/05/05 04:59:47;;;;;;;21.83;6.40;;;;;;;10.85;65.33;100274.13;5008234;28;20050;-84
2022/05/05 05:02:13;;;;;;;11.50;5.18;;;;;;;10.96;64.62;100288.72;5006535;28;20553;-82
2022/05/05 05:04:52;;;;;;;14.30;4.95;;;;;;;11.01;64.31;100288.75;5008276;28;20045;-83
2022/05/05 05:07:17;;;;;;;13.55;5.60;;;;;;;10.96;66.21;100296.91;5006984;28;20026;-83
2022/05/05 05:09:42;;;;;;;12.43;5.38;;;;;;;11.04;67.00;100296.44;5007876;28;20473;-83
2022/05/05 05:12:08;;;;;;;11.53;4.97;;;;;;;11.06;66.17;100302.47;5018623;28;20111;-83
2022/05/05 05:14:34;;;;;;;14.95;5.63;;;;;;;11.14;65.71;100300.38;5041940;28;20279;-84
2022/05/05 05:16:59;;;;;;;17.23;5.22;;;;;;;11.24;65.55;100307.84;5027782;28;20021;-83
2022/05/05 05:19:27;;;;;;;8.15;4.38;;;;;;;11.03;67.17;100297.50;5026832;28;20041;-83
2022/05/05 05:21:52;;;;;;;19.55;6.85;;;;;;;10.91;67.33;100297.66;5012197;28;20100;-83
2022/05/05 05:24:18;;;;;;;9.98;4.95;;;;;;;11.04;67.48;100301.06;5007196;28;20030;-83
2022/05/05 05:26:43;;;;;;;13.37;5.10;;;;;;;11.09;67.56;100312.88;5008391;28;20030;-83
2022/05/05 05:29:08;;;;;;;14.77;5.30;;;;;;;11.07;70.00;100306.00;5007081;28;20686;-83
2022/05/05 05:31:33;;;;;;;9.93;4.70;;;;;;;11.24;69.85;100316.88;5006921;28;20267;-83
2022/05/05 05:33:59;;;;;;;16.90;6.63;;;;;;;11.21;70.02;100309.16;5007116;28;20279;-83
2022/05/05 05:36:25;;;;;;;10.55;5.10;;;;;;;11.23;69.57;100317.94;5005984;28;20267;-83
2022/05/05 05:38:50;;;;;;;24.10;7.38;;;;;;;11.47;69.17;100320.38;5007255;28;20065;-83
2022/05/05 05:41:15;;;;;;;16.17;6.07;;;;;;;11.72;67.77;100316.25;5004148;28;20065;-83
2022/05/05 05:43:41;;;;;;;15.87;6.53;;;;;;;11.88;67.54;100319.94;5006921;28;20271;-82
2022/05/05 05:49:09;;;;;;;11.52;5.90;;;;;;;11.96;66.93;100317.81;5007583;28;20298;-83
2022/05/05 05:51:36;;;;;;;20.75;6.78;;;;;;;12.06;65.85;100330.75;5004475;28;20398;-83
2022/05/05 05:54:02;;;;;;;21.45;8.00;;;;;;;12.02;66.28;100330.44;5005613;28;20017;-83
2022/05/05 05:56:27;;;;;;;17.25;6.63;;;;;;;12.13;66.39;100331.38;5007498;28;20061;-82
2022/05/05 05:58:53;;;;;;;18.10;7.32;;;;;;;12.12;65.96;100325.06;5006091;28;20033;-83
2022/05/05 06:01:18;;;;;;;10.45;5.80;;;;;;;11.98;66.05;100329.31;5005104;28;20092;-83
2022/05/05 06:03:56;;;;;;;19.27;6.27;;;;;;;11.99;67.64;100331.78;5000769;28;20030;-83
2022/05/05 06:06:23;;;;;;;23.48;8.48;;;;;;;11.90;67.83;100330.59;4986819;28;20268;-83
2022/05/05 06:08:49;;;;;;;13.10;6.25;;;;;;;11.91;67.88;100335.81;4987058;28;20540;-83
2022/05/05 06:11:17;;;;;;;17.73;6.97;;;;;;;11.89;66.78;100329.78;5000309;28;20041;-84
2022/05/05 06:13:42;;;;;;;16.63;7.15;;;;;;;12.02;66.36;100331.25;5026864;28;20033;-82
2022/05/05 06:16:09;;;;;;;15.10;5.93;;;;;;;12.08;64.94;100334.03;5025515;28;20076;-83
2022/05/05 06:18:39;;;;;;;15.38;5.32;;;;;;;12.32;64.24;100341.91;5026409;28;20657;-83
2022/05/05 06:21:05;;;;;;;13.57;5.90;;;;;;;12.45;64.86;100333.22;5016989;28;20037;-83
2022/05/05 06:23:30;;;;;;;20.85;9.48;;;;;;;12.64;62.87;100343.75;5005746;28;20033;-83
2022/05/05 06:25:56;;;;;;;16.63;8.98;;;;;;;12.69;62.78;100346.50;5006164;28;20030;-83
2022/05/05 06:28:21;;;;;;;12.55;7.20;;;;;;;12.96;63.39;100344.72;5006192;28;20018;-83
2022/05/05 06:30:46;;;;;;;16.27;6.53;;;;;;;13.06;62.60;100349.41;5005735;28;20030;-83
2022/05/05 06:33:11;;;;;;;13.77;6.63;;;;;;;13.10;61.27;100353.28;5005150;28;20320;-83
2022/05/05 06:35:37;;;;;;;21.90;7.03;;;;;;;13.21;62.03;100350.56;5005872;28;20263;-83
2022/05/05 06:38:02;;;;;;;13.50;6.68;;;;;;;13.30;63.17;100349.78;5005473;28;20649;-83
2022/05/05 06:40:28;;;;;;;10.93;6.60;;;;;;;13.36;63.85;100350.66;5005886;28;20022;-83
2022/05/05 06:42:53;;;;;;;12.90;6.07;;;;;;;13.52;63.37;100356.16;5006098;28;20030;-83
2022/05/05 06:45:18;;;;;;;13.10;6.93;;;;;;;13.46;64.48;100359.97;5005618;28;20444;-84
2022/05/05 06:50:46;;;;;;;10.70;5.47;;;;;;;13.02;65.37;100367.47;5005608;28;20076;-88
2022/05/05 06:53:12;;;;;;;10.60;5.35;;;;;;;13.34;64.03;100374.72;5009982;28;20022;-83
2022/05/05 06:55:37;;;;;;;14.35;5.13;;;;;;;13.61;62.39;100372.91;5003556;28;20038;-83
2022/05/05 06:58:02;;;;;;;11.73;4.40;;;;;;;13.77;62.90;100373.75;4985450;28;20026;-83
2022/05/05 07:03:11;;;;;;;13.98;4.90;;;;;;;13.83;62.71;100372.66;5004882;28;20263;-83
2022/05/05 07:05:37;;;;;;;20.03;8.13;;;;;;;13.86;63.52;100383.09;5005918;28;20056;-83
2022/05/05 07:08:03;;;;;;;10.25;6.65;;;;;;;13.95;62.62;100374.34;5004862;28;20257;-84
2022/05/05 07:13:12;;;;;;;14.45;6.38;;;;;;;14.01;60.66;100376.78;4985798;28;20041;-84
2022/05/05 07:15:38;;;;;;;18.48;7.13;;;;;;;13.97;60.45;100386.66;4985385;28;20034;-83
2022/05/05 07:18:04;;;;;;;15.82;7.47;;;;;;;14.04;60.11;100383.66;4985126;28;20105;-84
2022/05/05 07:20:30;;;;;;;19.40;6.72;;;;;;;13.98;56.90;100390.22;4992957;28;20239;-83
2022/05/05 07:22:56;;;;;;;12.40;5.47;;;;;;;14.12;57.34;100390.50;5025537;28;20021;-83
2022/05/05 07:25:22;;;;;;;14.32;5.75;;;;;;;14.15;57.17;100389.97;5024619;28;20055;-84
2022/05/05 07:30:52;;;;;;;11.15;5.05;;;;;;;14.33;58.36;100393.28;5016914;28;20328;-83
2022/05/05 07:33:19;;;;;;;12.90;5.78;;;;;;;14.46;58.40;100400.13;5004124;28;20030;-83
2022/05/05 07:35:46;;;;;;;11.85;6.35;;;;;;;14.41;57.48;100398.19;5004956;28;20476;-84
2022/05/05 07:38:14;;;;;;;17.73;4.85;;;;;;;14.50;57.26;100403.97;5004451;28;20042;-83
2022/05/05 07:40:40;;;;;;;19.13;6.72;;;;;;;14.45;56.39;100401.22;5019762;28;20400;-84
2022/05/05 07:43:06;;;;;;;12.20;6.20;;;;;;;14.61;55.30;100395.69;5004920;28;20025;-83
2022/05/05 07:45:32;;;;;;;13.00;5.20;;;;;;;14.42;53.31;100394.34;5004858;28;20259;-84
2022/05/05 07:48:00;;;;;;;11.30;5.20;;;;;;;14.64;54.35;100401.47;5002984;28;20022;-83
2022/05/05 07:50:26;;;;;;;18.90;6.45;;;;;;;14.71;53.39;100403.91;5007403;28;20255;-84
2022/05/05 07:52:51;;;;;;;16.23;5.43;;;;;;;14.70;53.66;100400.38;5025172;28;20026;-83
2022/05/05 07:55:16;;;;;;;12.47;5.37;;;;;;;14.88;53.50;100397.34;5024304;28;20468;-84
2022/05/05 07:57:48;;;;;;;14.53;5.70;;;;;;;14.77;54.09;100401.97;5024716;28;20267;-84
2022/05/05 08:00:14;;;;;;;12.88;5.43;;;;;;;14.63;52.97;100408.06;5037533;28;20297;-84
2022/05/05 08:02:40;;;;;;;15.70;6.50;;;;;;;14.53;52.83;100406.16;5004490;28;20026;-84
2022/05/05 08:05:08;;;;;;;10.73;3.78;;;;;;;14.58;49.37;100403.38;5004911;28;20040;-84
2022/05/05 08:07:34;;;;;;;13.25;4.07;;;;;;;14.52;49.07;100409.16;5004953;28;20026;-83
2022/05/05 08:09:59;;;;;;;18.38;3.88;;;;;;;14.62;50.29;100408.34;5008372;28;20051;-84
2022/05/05 08:12:24;;;;;;;21.57;6.57;;;;;;;14.80;51.05;100416.00;5021700;28;20124;-83
2022/05/05 08:14:50;;;;;;;15.07;6.80;;;;;;;14.80;50.18;100415.16;5029540;28;20274;-83
2022/05/05 08:17:15;;;;;;;13.50;4.47;;;;;;;14.77;50.97;100419.28;5027174;28;20316;-84
2022/05/05 08:19:40;;;;;;;15.37;6.97;;;;;;;14.95;51.39;100417.06;5043687;28;20484;-84
2022/05/05 08:22:06;;;;;;;11.93;5.15;;;;;;;14.73;50.89;100420.94;5011156;28;20314;-84
2022/05/05 08:30:02;;;;;;;14.88;5.82;;;;;;;14.86;52.43;100427.81;5007963;28;20040;-84
2022/05/05 08:32:28;;;;;;;18.73;6.70;;;;;;;14.99;52.52;100422.84;5008002;28;20042;-83
2022/05/05 08:34:53;;;;;;;17.17;6.82;;;;;;;14.90;52.14;100417.94;5008358;28;20036;-83
2022/05/05 08:37:18;;;;;;;17.73;5.70;;;;;;;14.86;51.83;100424.25;5008285;28;20380;-83
2022/05/05 08:39:44;;;;;;;18.33;6.53;;;;;;;14.79;52.21;100425.31;5008415;28;20316;-84
2022/05/05 08:42:10;;;;;;;20.35;6.45;;;;;;;14.98;51.73;100422.03;5007667;28;20286;-83
2022/05/05 08:44:35;;;;;;;22.60;8.65;;;;;;;15.00;51.84;100425.31;5008695;28;20030;-84
2022/05/05 08:47:16;;;;;;;15.68;7.60;;;;;;;14.86;51.92;100422.31;5007350;28;20037;-84
2022/05/05 08:49:43;;;;;;;21.42;8.07;;;;;;;14.88;52.37;100424.78;5008325;28;20105;-84
2022/05/05 08:52:10;;;;;;;14.23;6.25;;;;;;;14.98;52.18;100421.19;5007620;28;20029;-84
2022/05/05 08:54:38;;;;;;;16.20;7.90;;;;;;;15.04;51.68;100436.56;5007873;28;20672;-83
2022/05/05 08:57:04;;;;;;;16.75;6.18;;;;;;;15.09;51.84;100432.97;5007861;28;20062;-84
2022/05/05 08:59:31;;;;;;;15.98;7.32;;;;;;;15.16;51.92;100428.00;5007914;28;20452;-84
2022/05/05 09:01:56;;;;;;;40.95;7.55;;;;;;;15.35;51.76;100438.38;5007456;28;20524;-84
2022/05/05 09:04:21;;;;;;;22.45;8.45;;;;;;;15.37;51.36;100444.41;5007066;28;20101;-84
2022/05/05 09:06:52;;;;;;;13.80;6.35;;;;;;;15.35;51.04;100436.47;5008043;28;20088;-84
2022/05/05 09:09:27;;;;;;;31.27;9.13;;;;;;;15.40;51.21;100432.84;4987716;28;20121;-84
2022/05/05 09:12:11;;;;;;;24.10;9.15;;;;;;;15.36;51.09;100438.09;5003050;28;20065;-84
2022/05/05 09:14:38;;;;;;;18.48;8.25;;;;;;;15.46;50.68;100441.91;5007424;28;20108;-84
2022/05/05 09:17:06;;;;;;;20.35;7.93;;;;;;;15.50;51.82;100438.31;5005311;28;20034;-84
2022/05/05 09:19:36;;;;;;;21.27;8.73;;;;;;;15.39;51.56;100443.03;5007530;28;20030;-83
2022/05/05 09:22:03;;;;;;;23.75;8.02;;;;;;;15.66;50.64;100434.69;5006499;28;20036;-84
2022/05/05 09:24:41;;;;;;;15.05;7.70;;;;;;;15.83;50.15;100440.63;5008016;28;20073;-84
2022/05/05 09:27:16;;;;;;;23.17;9.10;;;;;;;15.83;50.56;100448.03;5007166;28;20465;-83
2022/05/05 09:29:42;;;;;;;14.25;7.10;;;;;;;15.84;50.57;100444.19;5006750;28;20026;-84
2022/05/05 09:32:13;;;;;;;23.23;9.43;;;;;;;15.86;49.07;100442.00;5006041;28;20075;-84
2022/05/05 09:34:39;;;;;;;13.90;7.55;;;;;;;15.87;49.29;100446.38;5005337;28;20764;-84
2022/05/05 09:37:20;;;;;;;17.48;8.50;;;;;;;15.68;47.74;100444.25;5007723;28;20030;-84
2022/05/05 09:40:00;;;;;;;33.92;11.52;;;;;;;16.05;48.42;100435.88;5006706;28;20116;-84
2022/05/05 09:42:36;;;;;;;17.60;8.75;;;;;;;16.06;49.14;100438.31;5006540;28;20312;-84
2022/05/05 09:45:18;;;;;;;14.88;7.40;;;;;;;16.04;48.85;100436.94;5007474;28;20026;-84
2022/05/05 09:47:54;;;;;;;15.75;8.00;;;;;;;16.18;48.76;100440.72;5006321;28;20041;-84
2022/05/05 09:50:22;;;;;;;23.02;10.00;;;;;;;16.15;47.47;100435.75;5006896;28;20026;-84
2022/05/05 09:58:22;;;;;;;21.20;9.77;;;;;;;16.41;48.15;100441.09;5007554;28;20057;-84
2022/05/05 10:06:38;;;;;;;;;;;;;;;16.52;47.74;100441.81;5007912;28;20295;-84
2022/05/05 10:09:08;;;;;;;23.95;9.70;;;;;;;16.66;47.59;100444.72;5010382;28;19913;-84
2022/05/05 10:11:34;;;;;;;19.10;9.65;;;;;;;16.73;47.17;100449.06;5013197;28;20155;-84
2022/05/05 10:14:01;;;;;;;20.27;8.80;;;;;;;16.87;47.75;100452.78;5026010;28;20075;-85
2022/05/05 10:16:30;;;;;;;32.65;10.88;;;;;;;16.99;47.41;100440.53;5008613;28;20508;-84
2022/05/05 10:18:56;;;;;;;21.13;10.98;;;;;;;17.13;47.31;100446.19;5026554;28;20033;-84
2022/05/05 10:21:30;;;;;;;21.65;9.93;;;;;;;17.19;47.16;100438.72;5014931;28;20399;-83
2022/05/05 10:24:07;;;;;;;19.67;9.10;;;;;;;17.13;46.28;100449.78;5006793;28;20084;-84
2022/05/05 10:26:33;;;;;;;20.42;9.93;;;;;;;17.26;46.79;100456.53;5005937;28;20069;-85
2022/05/05 10:28:59;;;;;;;31.17;11.15;;;;;;;17.54;46.33;100447.66;5006473;28;20037;-84
2022/05/05 10:31:29;;;;;;;23.08;10.05;;;;;;;17.57;46.68;100452.59;5005493;28;20049;-84
2022/05/05 10:34:13;;;;;;;19.00;10.43;;;;;;;17.73;45.34;100447.69;5006152;28;20052;-84
2022/05/05 10:36:38;;;;;;;20.33;10.60;;;;;;;17.54;46.94;100450.41;5006584;28;20093;-84
2022/05/05 10:39:18;;;;;;;20.13;10.87;;;;;;;17.48;46.28;100444.16;5005482;28;20129;-84
2022/05/05 10:41:43;;;;;;;20.48;10.18;;;;;;;17.22;45.73;100438.94;5005441;28;20263;-84
2022/05/05 10:44:21;;;;;;;22.23;11.00;;;;;;;17.39;46.38;100438.44;5005543;28;20036;-84
2022/05/05 10:47:05;;;;;;;21.15;10.55;;;;;;;17.58;46.24;100437.66;5005733;28;20068;-83
2022/05/05 10:49:34;;;;;;;20.35;8.88;;;;;;;17.72;46.15;100439.69;5006175;28;20361;-84
2022/05/05 10:52:11;;;;;;;23.75;9.23;;;;;;;17.88;45.39;100442.25;5005028;28;20061;-84
2022/05/05 10:54:41;;;;;;;21.30;10.65;;;;;;;17.99;45.19;100440.16;5005956;28;20112;-84
2022/05/05 10:57:40;;;;;;;21.98;9.75;;;;;;;18.07;44.83;100433.97;5005242;28;20409;-84
2022/05/05 11:00:09;;;;;;;19.27;10.52;;;;;;;18.11;44.52;100439.69;4982110;28;20050;-84
2022/05/05 11:03:02;;;;;;;17.17;9.70;;;;;;;18.18;44.91;100440.19;5005359;28;20068;-84
2022/05/05 11:05:30;;;;;;;21.85;11.13;;;;;;;18.28;45.07;100441.94;5004908;28;20053;-84
2022/05/05 11:08:14;;;;;;;21.00;9.95;;;;;;;18.52;45.33;100444.59;5005883;28;20045;-83
2022/05/05 11:13:45;;;;;;;17.95;9.80;;;;;;;18.11;44.25;100443.28;5024579;28;20506;-83
2022/05/05 11:22:04;;;;;;;22.00;11.40;;;;;;;18.24;43.55;100438.97;5009073;28;20061;-84
2022/05/05 11:24:30;;;;;;;19.00;8.95;;;;;;;18.19;43.46;100444.56;5005698;28;20026;-84
2022/05/05 11:26:55;;;;;;;20.60;10.00;;;;;;;18.38;43.63;100433.50;5003915;28;20042;-84
2022/05/05 11:29:20;;;;;;;14.77;7.30;;;;;;;18.54;43.09;100436.00;5005644;28;20101;-84
2022/05/05 11:32:00;;;;;;;19.23;10.07;;;;;;;18.57;43.13;100442.88;5004354;28;20782;-84
2022/05/05 11:34:35;;;;;;;19.38;9.63;;;;;;;18.31;43.44;100436.63;5005130;28;20038;-84
2022/05/05 11:37:02;;;;;;;14.93;6.85;;;;;;;18.14;44.32;100436.34;5004685;28;20054;-84
2022/05/05 11:39:29;;;;;;;19.15;9.02;;;;;;;18.13;43.96;100442.97;5004333;28;20052;-83
2022/05/05 11:41:58;;;;;;;19.13;9.68;;;;;;;18.23;43.72;100437.31;5005503;28;20434;-85
2022/05/05 11:44:25;;;;;;;19.35;9.70;;;;;;;18.52;43.74;100435.47;5018571;28;20018;-84
2022/05/05 11:47:06;;;;;;;19.60;9.68;;;;;;;18.64;44.29;100440.50;5004975;28;20038;-83
2022/05/05 11:49:35;;;;;;;16.98;9.35;;;;;;;18.97;41.83;100426.66;5004512;28;20022;-84
2022/05/05 11:52:00;;;;;;;14.93;8.35;;;;;;;18.95;43.05;100431.69;5004083;28;20036;-84
2022/05/05 11:54:28;;;;;;;17.40;9.43;;;;;;;19.07;42.36;100427.59;5004523;28;20381;-84
2022/05/05 11:56:54;;;;;;;12.45;7.18;;;;;;;19.07;42.07;100433.09;5004542;28;20394;-83
2022/05/05 12:02:11;;;;;;;16.75;8.02;;;;;;;18.51;42.90;100429.13;5012998;28;20145;-84
2022/05/05 12:04:39;;;;;;;11.23;5.80;;;;;;;18.66;42.58;100439.09;5005143;28;20464;-83
2022/05/05 12:07:08;;;;;;;15.88;7.32;;;;;;;18.87;42.44;100432.38;5004687;28;20022;-84
2022/05/05 12:09:33;;;;;;;17.27;7.85;;;;;;;19.15;42.77;100429.66;5004429;28;20022;-84
2022/05/05 12:12:22;;;;;;;19.48;7.93;;;;;;;18.93;43.26;100420.13;5007542;28;20077;-84
2022/05/05 12:14:53;;;;;;;11.50;7.45;;;;;;;18.41;42.88;100432.06;5004005;28;20088;-84
2022/05/05 12:17:21;;;;;;;21.63;8.93;;;;;;;18.62;43.23;100434.47;5004362;28;20036;-83